Terminal Aerodrome Forecast
Issued by NWS Wilmington, OH

Current Version | Previous Version | Graphics & Text | Print | Product List | Glossary Off
Versions: 1 2 3 4 5 6 7 8 9 10 11 12 13 14 15 16 17 18 19

000
FTUS41 KILN 211700
TAFDAY
TAF
KDAY 211740Z 2118/2218 23009KT P6SM SCT022 OVC080
      TEMPO 2118/2120 BKN022
     FM220000 22006KT P6SM FEW050 BKN150
     FM220700 23006KT P6SM VCTS BKN040CB
     FM221300 23006KT P6SM SCT050 BKN150=

USA.gov is the U.S. government's official web portal to all federal, state and local government web resources and services.